Time;durP1;ratioP1;P1;durP2;ratioP2;P2;SDS_P1;SDS_P2;PMS_P1;PMS_P2;Temp;Humidity;BMP_temperature;BMP_pressure;BME280_temperature;BME280_humidity;BME280_pressure;Samples;Min_cycle;Max_cycle;Signal;HPM_P1;HPM_P2
2023/07/27 00:00:15;;;;;;;10.73;7.97;;;14.30;99.90;;;;;;5034743;28;20204;-75
2023/07/27 00:02:44;;;;;;;11.20;8.00;;;14.30;99.90;;;;;;5042094;28;20235;-77
2023/07/27 00:05:14;;;;;;;11.50;7.85;;;14.30;99.90;;;;;;5044829;28;20299;-76
2023/07/27 00:07:41;;;;;;;12.20;7.40;;;14.20;99.90;;;;;;5022134;28;20280;-75
2023/07/27 00:10:08;;;;;;;10.65;6.72;;;14.20;99.90;;;;;;5042885;28;20199;-75
2023/07/27 00:12:35;;;;;;;9.98;7.70;;;14.20;99.90;;;;;;5024984;28;20228;-76
2023/07/27 00:15:02;;;;;;;12.00;8.52;;;14.20;99.90;;;;;;5041485;28;20214;-76
2023/07/27 00:17:28;;;;;;;12.82;7.85;;;14.20;99.90;;;;;;5032941;28;20287;-76
2023/07/27 00:19:55;;;;;;;9.95;8.18;;;14.20;99.90;;;;;;5027702;28;20201;-76
2023/07/27 00:22:24;;;;;;;13.13;7.25;;;14.10;99.90;;;;;;5041311;28;20621;-75
2023/07/27 00:24:50;;;;;;;10.52;8.57;;;14.10;99.90;;;;;;5030827;28;20287;-75
2023/07/27 00:27:17;;;;;;;10.50;8.35;;;14.00;99.90;;;;;;5042352;28;20235;-75
2023/07/27 00:29:43;;;;;;;9.65;8.60;;;14.00;99.90;;;;;;5032671;28;20571;-77
2023/07/27 00:32:10;;;;;;;12.00;8.43;;;14.00;99.90;;;;;;5041958;28;20626;-76
2023/07/27 00:34:37;;;;;;;11.02;9.70;;;14.00;99.90;;;;;;5047225;28;20665;-76
2023/07/27 00:37:04;;;;;;;14.55;11.15;;;14.00;99.90;;;;;;5043217;28;20207;-75
2023/07/27 00:39:32;;;;;;;12.48;8.32;;;13.90;99.90;;;;;;5041205;28;20247;-77
2023/07/27 00:41:59;;;;;;;10.85;8.57;;;13.90;99.90;;;;;;5046854;28;20295;-76
2023/07/27 00:44:26;;;;;;;15.40;9.40;;;13.90;99.90;;;;;;5045496;28;20255;-76
2023/07/27 00:46:53;;;;;;;13.18;8.68;;;13.90;99.90;;;;;;5042473;28;20749;-76
2023/07/27 00:49:20;;;;;;;10.70;9.15;;;13.90;99.90;;;;;;5025674;28;20296;-76
2023/07/27 00:51:48;;;;;;;12.82;9.82;;;14.00;99.90;;;;;;5041588;28;20288;-76
2023/07/27 00:54:16;;;;;;;10.75;9.50;;;14.00;99.90;;;;;;5038485;28;20306;-75
2023/07/27 00:56:48;;;;;;;12.88;9.43;;;14.00;99.90;;;;;;5048726;28;20282;-75
2023/07/27 00:59:15;;;;;;;12.10;10.23;;;14.00;99.90;;;;;;5027943;28;20200;-76
2023/07/27 01:01:42;;;;;;;14.25;9.70;;;14.00;99.90;;;;;;5044698;28;20242;-76
2023/07/27 01:04:08;;;;;;;11.20;9.75;;;14.00;99.90;;;;;;5038123;28;20234;-75
2023/07/27 01:06:35;;;;;;;11.02;8.52;;;14.00;99.90;;;;;;5037470;28;20204;-76
2023/07/27 01:09:03;;;;;;;11.10;9.95;;;14.00;99.90;;;;;;5042183;28;20671;-76
2023/07/27 01:11:44;;;;;;;12.45;10.25;;;14.10;99.90;;;;;;5046387;28;20689;-76
2023/07/27 01:14:21;;;;;;;12.45;10.13;;;14.00;99.90;;;;;;5039364;28;20220;-76
2023/07/27 01:16:54;;;;;;;12.02;9.15;;;14.10;99.90;;;;;;5031484;28;20224;-80
2023/07/27 01:19:55;;;;;;;10.85;9.48;;;14.10;99.90;;;;;;5042315;28;20211;-75
2023/07/27 01:22:38;;;;;;;15.25;8.40;;;14.10;99.90;;;;;;5027122;28;20290;-76
2023/07/27 01:25:24;;;;;;;17.08;10.00;;;14.10;99.90;;;;;;5044610;28;20236;-76
2023/07/27 01:28:04;;;;;;;10.40;8.90;;;14.20;99.90;;;;;;5040453;28;20579;-76
2023/07/27 01:30:50;;;;;;;10.35;7.93;;;14.30;99.90;;;;;;5039498;28;20217;-76
2023/07/27 01:33:22;;;;;;;15.52;9.80;;;14.30;99.90;;;;;;5036194;28;20224;-76
2023/07/27 01:35:56;;;;;;;10.40;8.40;;;14.30;99.90;;;;;;5031344;28;20211;-77
2023/07/27 01:38:26;;;;;;;11.30;8.85;;;14.30;99.90;;;;;;5043917;28;20204;-77
2023/07/27 01:40:56;;;;;;;10.38;9.10;;;14.40;99.90;;;;;;5046344;28;20214;-76
2023/07/27 01:43:24;;;;;;;13.20;9.50;;;14.50;99.90;;;;;;5043547;28;20307;-75
2023/07/27 01:45:53;;;;;;;11.93;10.63;;;14.40;99.90;;;;;;5050525;28;20738;-74
2023/07/27 01:48:22;;;;;;;12.65;9.50;;;14.60;99.90;;;;;;5045362;28;20308;-75
2023/07/27 01:50:51;;;;;;;10.27;9.13;;;14.50;99.90;;;;;;5043858;28;20247;-76
2023/07/27 01:53:19;;;;;;;12.05;8.15;;;14.70;99.90;;;;;;5046015;28;20251;-76
2023/07/27 01:55:47;;;;;;;15.63;9.73;;;14.70;99.90;;;;;;5035555;28;20204;-75
2023/07/27 01:58:16;;;;;;;12.07;9.40;;;14.70;99.90;;;;;;5042855;28;20230;-76
2023/07/27 02:00:43;;;;;;;9.70;8.70;;;14.80;99.90;;;;;;5038555;28;20295;-75
2023/07/27 02:03:12;;;;;;;11.32;8.60;;;14.80;99.90;;;;;;5044960;28;20269;-75
2023/07/27 02:05:39;;;;;;;10.50;8.70;;;14.90;99.90;;;;;;5039893;28;20564;-75
2023/07/27 02:08:06;;;;;;;13.38;9.52;;;14.90;99.90;;;;;;5045512;28;20295;-75
2023/07/27 02:10:34;;;;;;;10.77;9.18;;;14.90;99.90;;;;;;5045393;28;20287;-76
2023/07/27 02:13:07;;;;;;;10.82;8.98;;;14.90;99.90;;;;;;5045781;28;20749;-76
2023/07/27 02:15:40;;;;;;;13.98;10.15;;;14.90;99.90;;;;;;5046960;28;20243;-76
2023/07/27 02:18:13;;;;;;;10.60;8.98;;;14.90;99.90;;;;;;5041101;28;20661;-76
2023/07/27 02:20:41;;;;;;;10.07;8.20;;;14.90;99.90;;;;;;5039902;28;20287;-76
2023/07/27 02:23:10;;;;;;;11.32;9.40;;;14.90;99.90;;;;;;5042066;28;20223;-76
2023/07/27 02:25:37;;;;;;;12.93;9.27;;;14.90;99.90;;;;;;5040742;28;20239;-75
2023/07/27 02:28:04;;;;;;;10.05;8.43;;;14.90;99.90;;;;;;5046101;28;20293;-77
2023/07/27 02:30:31;;;;;;;13.38;9.40;;;14.90;99.90;;;;;;5045332;28;20208;-75
2023/07/27 02:32:58;;;;;;;9.80;8.80;;;14.90;99.90;;;;;;5047222;28;20223;-75
2023/07/27 02:35:26;;;;;;;12.93;8.27;;;14.80;99.90;;;;;;5038653;28;20646;-75
2023/07/27 02:37:53;;;;;;;16.55;10.30;;;14.90;99.90;;;;;;5041524;28;20284;-76
2023/07/27 02:40:20;;;;;;;13.85;9.75;;;14.80;99.90;;;;;;5041758;28;20316;-77
2023/07/27 02:42:48;;;;;;;12.60;10.20;;;14.70;99.90;;;;;;5048340;28;20601;-75
2023/07/27 02:45:15;;;;;;;11.57;9.85;;;14.70;99.90;;;;;;5058773;28;20718;-75
2023/07/27 02:47:42;;;;;;;11.57;9.13;;;14.60;99.90;;;;;;5051112;28;20211;-75
2023/07/27 02:50:09;;;;;;;12.10;10.20;;;14.60;99.90;;;;;;5036295;28;20291;-75
2023/07/27 02:52:37;;;;;;;14.68;9.85;;;14.60;99.90;;;;;;5030536;28;20259;-75
2023/07/27 02:55:05;;;;;;;10.38;9.32;;;14.60;99.90;;;;;;5044052;28;20239;-75
2023/07/27 02:57:32;;;;;;;15.35;11.18;;;14.70;99.90;;;;;;5042116;28;20210;-76
2023/07/27 02:59:59;;;;;;;13.20;11.18;;;14.60;99.90;;;;;;5041966;28;20206;-76
2023/07/27 03:02:26;;;;;;;13.45;12.05;;;14.70;99.90;;;;;;5048239;28;20628;-75
2023/07/27 03:04:53;;;;;;;15.82;10.57;;;14.60;99.90;;;;;;5050722;28;20282;-75
2023/07/27 03:07:20;;;;;;;12.85;11.30;;;14.60;99.90;;;;;;5050303;28;20306;-75
2023/07/27 03:09:52;;;;;;;14.70;12.07;;;14.70;99.90;;;;;;5049509;28;20233;-75
2023/07/27 03:12:18;;;;;;;16.52;12.80;;;14.80;99.90;;;;;;5028404;28;20292;-75
2023/07/27 03:14:45;;;;;;;17.17;13.30;;;14.80;99.90;;;;;;5040963;28;20298;-75
2023/07/27 03:17:12;;;;;;;15.75;12.52;;;14.90;99.90;;;;;;5041227;28;20293;-76
2023/07/27 03:19:39;;;;;;;18.85;15.15;;;14.80;99.90;;;;;;5043736;28;20199;-75
2023/07/27 03:22:06;;;;;;;18.15;14.77;;;14.80;99.90;;;;;;5047054;28;20234;-76
2023/07/27 03:24:34;;;;;;;15.93;13.50;;;14.80;99.90;;;;;;5051441;28;20224;-75
2023/07/27 03:27:02;;;;;;;14.65;12.70;;;14.80;99.90;;;;;;5045746;28;20206;-76
2023/07/27 03:29:29;;;;;;;14.25;12.07;;;14.90;99.90;;;;;;5037868;28;20306;-75
2023/07/27 03:31:56;;;;;;;15.90;13.80;;;14.90;99.90;;;;;;5048537;28;20246;-75
2023/07/27 03:34:23;;;;;;;16.33;14.18;;;14.90;99.90;;;;;;5042156;28;20247;-75
2023/07/27 03:36:49;;;;;;;18.02;13.10;;;14.90;99.90;;;;;;5042564;28;20274;-76
2023/07/27 03:39:16;;;;;;;14.80;12.95;;;14.90;99.90;;;;;;5037136;28;20283;-76
2023/07/27 03:41:43;;;;;;;15.95;13.60;;;14.80;99.90;;;;;;5028840;28;20205;-76
2023/07/27 03:44:14;;;;;;;17.02;13.85;;;14.80;99.90;;;;;;5047702;28;20302;-75
2023/07/27 03:46:40;;;;;;;18.95;15.02;;;14.80;99.90;;;;;;5032492;28;20209;-76
2023/07/27 03:49:09;;;;;;;18.00;14.30;;;14.80;99.90;;;;;;5033056;28;20229;-76
2023/07/27 03:51:35;;;;;;;15.98;12.98;;;14.80;99.90;;;;;;5044165;28;20212;-75
2023/07/27 03:54:02;;;;;;;18.85;13.35;;;14.80;99.90;;;;;;5037416;28;20224;-75
2023/07/27 03:56:30;;;;;;;23.30;14.88;;;14.80;99.90;;;;;;5031680;28;20251;-75
2023/07/27 03:58:57;;;;;;;16.25;14.52;;;14.80;99.90;;;;;;5040044;28;20232;-76
2023/07/27 04:01:25;;;;;;;16.65;13.93;;;14.80;99.90;;;;;;5039115;28;20283;-77
2023/07/27 04:03:52;;;;;;;20.00;14.18;;;14.80;99.90;;;;;;5035763;28;20307;-75
2023/07/27 04:06:19;;;;;;;21.45;13.82;;;14.80;99.90;;;;;;5050417;28;20287;-75
2023/07/27 04:08:46;;;;;;;18.38;14.57;;;14.90;99.90;;;;;;5049013;28;20327;-75
2023/07/27 04:11:13;;;;;;;16.20;12.75;;;14.80;99.90;;;;;;5037388;28;20253;-75
2023/07/27 04:13:40;;;;;;;20.90;15.57;;;14.90;99.90;;;;;;5050176;28;20233;-76
2023/07/27 04:16:07;;;;;;;16.88;14.40;;;14.90;99.90;;;;;;5051774;28;20654;-75
2023/07/27 04:18:35;;;;;;;18.45;13.43;;;15.00;99.90;;;;;;5051774;28;20230;-76
2023/07/27 04:21:02;;;;;;;14.90;13.40;;;15.00;99.90;;;;;;5048179;28;20283;-76
2023/07/27 04:23:28;;;;;;;15.15;12.93;;;15.10;99.90;;;;;;5054370;28;20224;-75
2023/07/27 04:25:55;;;;;;;19.60;13.73;;;15.10;99.90;;;;;;5042780;28;20741;-77
2023/07/27 04:28:22;;;;;;;18.73;14.00;;;15.10;99.90;;;;;;5054117;28;20295;-74
2023/07/27 04:30:49;;;;;;;14.68;12.70;;;15.20;99.90;;;;;;5057471;28;20287;-74
2023/07/27 04:33:16;;;;;;;22.13;12.57;;;15.00;99.90;;;;;;5048798;28;20255;-75
2023/07/27 04:35:44;;;;;;;22.90;14.60;;;15.10;99.90;;;;;;5038954;28;20205;-76
2023/07/27 04:38:11;;;;;;;18.00;14.52;;;15.10;99.90;;;;;;5035500;28;20200;-75
2023/07/27 04:40:38;;;;;;;19.45;14.98;;;15.10;99.90;;;;;;5033840;28;20295;-77
2023/07/27 04:43:05;;;;;;;16.30;14.63;;;15.10;99.90;;;;;;5038131;28;20228;-76
2023/07/27 04:45:32;;;;;;;15.38;13.88;;;15.10;99.90;;;;;;5045356;28;20687;-75
2023/07/27 04:47:59;;;;;;;17.80;15.73;;;15.20;99.90;;;;;;5031614;28;20229;-74
2023/07/27 04:50:25;;;;;;;14.35;12.88;;;15.10;99.90;;;;;;5039576;28;20238;-76
2023/07/27 04:52:54;;;;;;;14.95;11.85;;;15.20;99.90;;;;;;5039935;28;20309;-75
2023/07/27 04:55:21;;;;;;;18.10;14.75;;;15.10;99.90;;;;;;5036891;28;20240;-77
2023/07/27 04:57:47;;;;;;;16.30;14.65;;;15.10;99.90;;;;;;5047477;28;20270;-75
2023/07/27 05:00:15;;;;;;;14.90;13.30;;;15.20;99.90;;;;;;5040666;28;20199;-76
2023/07/27 05:02:42;;;;;;;17.50;14.38;;;15.20;99.90;;;;;;5037150;28;20252;-75
2023/07/27 05:05:09;;;;;;;15.88;13.00;;;15.10;99.90;;;;;;5042558;28;20218;-76
2023/07/27 05:07:36;;;;;;;15.48;13.40;;;15.30;99.90;;;;;;5049608;28;20226;-76
2023/07/27 05:10:05;;;;;;;14.43;12.90;;;15.30;99.90;;;;;;5047222;28;20296;-76
2023/07/27 05:12:33;;;;;;;16.73;13.52;;;15.30;99.90;;;;;;5050516;28;20208;-75
2023/07/27 05:15:00;;;;;;;17.42;13.32;;;15.30;99.90;;;;;;5044924;28;20205;-75
2023/07/27 05:17:27;;;;;;;16.50;11.90;;;15.40;99.90;;;;;;5050509;28;20714;-75
2023/07/27 05:19:54;;;;;;;14.55;12.80;;;15.40;99.90;;;;;;5050009;28;20207;-76
2023/07/27 05:22:21;;;;;;;16.00;12.45;;;15.50;99.90;;;;;;5047338;28;20241;-75
2023/07/27 05:24:48;;;;;;;13.57;10.80;;;15.60;99.90;;;;;;5050810;28;20287;-75
2023/07/27 05:27:16;;;;;;;11.80;10.68;;;15.60;99.90;;;;;;5047757;28;20210;-75
2023/07/27 05:29:43;;;;;;;12.73;10.90;;;15.60;99.90;;;;;;5042955;28;20283;-74
2023/07/27 05:32:10;;;;;;;15.48;12.05;;;15.70;99.90;;;;;;5040751;28;20655;-75
2023/07/27 05:34:37;;;;;;;18.58;11.55;;;15.80;99.90;;;;;;5050895;28;20235;-74
2023/07/27 05:37:04;;;;;;;13.80;10.90;;;15.90;99.90;;;;;;5039224;28;20246;-74
2023/07/27 05:39:32;;;;;;;18.23;11.38;;;15.80;99.90;;;;;;5033646;28;20229;-74
2023/07/27 05:41:59;;;;;;;14.00;11.23;;;15.90;99.90;;;;;;5036334;28;20298;-74
2023/07/27 05:44:27;;;;;;;13.93;10.33;;;15.90;99.90;;;;;;5032722;28;20718;-74
2023/07/27 05:46:56;;;;;;;14.57;10.15;;;16.10;99.90;;;;;;5043469;28;20946;-74
2023/07/27 05:49:22;;;;;;;11.38;9.88;;;16.10;99.90;;;;;;5035816;28;20223;-73
2023/07/27 05:51:50;;;;;;;17.20;11.10;;;16.10;99.90;;;;;;5035309;28;20386;-74
2023/07/27 05:54:16;;;;;;;12.40;9.70;;;16.10;99.90;;;;;;5042953;28;20235;-73
2023/07/27 05:56:43;;;;;;;17.10;11.00;;;16.10;99.90;;;;;;5050082;28;20217;-72
2023/07/27 05:59:10;;;;;;;15.13;11.63;;;16.10;99.90;;;;;;5044639;28;20272;-73
2023/07/27 06:01:38;;;;;;;12.13;10.93;;;16.10;99.90;;;;;;5036219;28;20583;-72
2023/07/27 06:04:06;;;;;;;15.63;11.77;;;16.10;99.90;;;;;;5049733;28;20231;-71
2023/07/27 06:06:34;;;;;;;17.08;11.95;;;16.00;99.90;;;;;;5046914;28;20548;-71
2023/07/27 06:09:01;;;;;;;18.90;12.52;;;15.90;99.90;;;;;;5045988;28;20218;-71
2023/07/27 06:11:28;;;;;;;16.15;12.60;;;15.90;99.90;;;;;;5040581;28;20204;-72
2023/07/27 06:13:55;;;;;;;13.90;10.55;;;16.00;99.90;;;;;;5044628;28;20228;-72
2023/07/27 06:16:22;;;;;;;15.02;13.00;;;16.00;99.90;;;;;;5043918;28;20294;-72
2023/07/27 06:18:50;;;;;;;14.27;11.50;;;16.10;99.90;;;;;;5044320;28;20200;-73
2023/07/27 06:21:17;;;;;;;14.00;12.27;;;16.10;99.90;;;;;;5050792;28;20555;-72
2023/07/27 06:23:43;;;;;;;17.15;12.60;;;16.10;99.90;;;;;;5047090;28;20277;-73
2023/07/27 06:26:11;;;;;;;14.27;12.02;;;16.20;99.90;;;;;;5041979;28;20209;-72
2023/07/27 06:28:37;;;;;;;12.88;11.05;;;16.20;99.90;;;;;;5040103;28;20223;-73
2023/07/27 06:31:04;;;;;;;15.43;11.23;;;16.40;99.90;;;;;;5032371;28;20291;-73
2023/07/27 06:33:31;;;;;;;15.10;11.20;;;16.50;99.90;;;;;;5041389;28;20483;-72
2023/07/27 06:35:59;;;;;;;23.70;14.97;;;16.50;99.90;;;;;;5039944;28;20488;-73
2023/07/27 06:38:26;;;;;;;13.55;12.15;;;16.50;99.90;;;;;;5033419;28;20476;-73
2023/07/27 06:40:53;;;;;;;19.70;12.23;;;16.40;99.90;;;;;;5041281;28;20246;-73
2023/07/27 06:43:21;;;;;;;14.23;11.20;;;16.50;99.90;;;;;;5031243;28;20558;-74
2023/07/27 06:45:48;;;;;;;14.40;10.97;;;16.50;99.90;;;;;;5041613;28;20480;-73
2023/07/27 06:48:16;;;;;;;16.13;12.73;;;16.60;99.90;;;;;;5038495;28;20464;-73
2023/07/27 06:50:43;;;;;;;15.13;11.03;;;16.70;99.90;;;;;;5042011;28;20489;-73
2023/07/27 06:53:11;;;;;;;14.90;10.65;;;16.70;99.90;;;;;;5048577;28;20904;-73
2023/07/27 06:55:38;;;;;;;15.33;12.03;;;16.80;99.90;;;;;;5047711;28;20253;-74
2023/07/27 06:58:05;;;;;;;16.90;14.80;;;16.70;99.90;;;;;;5049336;28;20482;-73
2023/07/27 07:00:32;;;;;;;15.93;11.00;;;16.80;99.90;;;;;;5041991;28;20474;-73
2023/07/27 07:02:59;;;;;;;15.17;12.57;;;16.90;99.90;;;;;;5043823;28;20500;-73
2023/07/27 07:05:26;;;;;;;13.57;11.67;;;16.80;99.90;;;;;;5041201;28;20480;-73
2023/07/27 07:07:53;;;;;;;11.70;9.30;;;16.90;99.90;;;;;;5029729;28;20454;-73
2023/07/27 07:10:21;;;;;;;15.30;11.60;;;17.00;99.90;;;;;;5037328;28;20489;-73
2023/07/27 07:12:48;;;;;;;15.82;13.52;;;16.90;99.90;;;;;;5029191;28;20468;-73
2023/07/27 07:15:15;;;;;;;15.70;11.93;;;16.80;99.90;;;;;;5029660;28;20216;-73
2023/07/27 07:17:42;;;;;;;13.00;9.20;;;16.80;99.90;;;;;;5040460;28;20540;-73
2023/07/27 07:20:10;;;;;;;12.70;11.23;;;16.90;99.90;;;;;;5037911;28;20430;-74
2023/07/27 07:22:37;;;;;;;13.67;11.60;;;16.90;99.90;;;;;;5044717;28;20963;-73
2023/07/27 07:25:05;;;;;;;15.37;11.83;;;16.90;99.90;;;;;;5041246;28;20446;-73
2023/07/27 07:27:33;;;;;;;13.50;11.30;;;17.00;99.90;;;;;;5036476;28;20443;-73
2023/07/27 07:30:14;;;;;;;11.23;10.20;;;16.90;99.90;;;;;;5039736;28;20532;-73
2023/07/27 07:32:40;;;;;;;13.40;12.10;;;17.00;99.90;;;;;;5046237;28;20493;-73
2023/07/27 07:35:22;;;;;;;15.83;12.07;;;17.10;99.90;;;;;;5040220;28;20979;-73
2023/07/27 07:37:49;;;;;;;14.10;11.67;;;17.20;99.90;;;;;;5039820;28;20886;-73
2023/07/27 07:40:17;;;;;;;15.73;11.20;;;17.30;99.90;;;;;;5042613;28;20446;-73
2023/07/27 07:42:47;;;;;;;16.90;11.50;;;17.10;99.90;;;;;;5044704;28;20469;-73
2023/07/27 07:45:14;;;;;;;12.60;11.13;;;17.30;99.90;;;;;;5033559;28;20923;-73
2023/07/27 07:47:41;;;;;;;12.10;10.47;;;17.40;99.90;;;;;;5032049;28;20525;-73
2023/07/27 07:50:08;;;;;;;15.27;11.17;;;17.30;99.90;;;;;;5042774;28;20482;-73
2023/07/27 07:52:35;;;;;;;11.27;10.10;;;17.30;99.90;;;;;;5027918;28;20474;-73
2023/07/27 07:55:02;;;;;;;12.23;11.03;;;17.30;99.90;;;;;;5048201;28;20478;-74
2023/07/27 07:57:29;;;;;;;14.53;11.13;;;17.40;99.90;;;;;;5046935;28;20452;-74
2023/07/27 07:59:58;;;;;;;16.63;11.57;;;17.30;99.90;;;;;;5050778;28;20458;-74
2023/07/27 08:02:25;;;;;;;11.17;9.67;;;17.40;99.90;;;;;;5050976;28;20449;-73
2023/07/27 08:04:51;;;;;;;16.53;11.20;;;17.50;99.90;;;;;;5046504;28;20452;-72
2023/07/27 08:07:18;;;;;;;12.23;10.93;;;17.40;99.90;;;;;;5049104;28;20477;-73
2023/07/27 08:09:45;;;;;;;13.60;10.57;;;17.50;99.90;;;;;;5050248;28;20517;-73
2023/07/27 08:12:12;;;;;;;13.80;12.37;;;17.40;99.90;;;;;;5037142;28;20870;-73
2023/07/27 08:14:39;;;;;;;10.97;9.83;;;17.40;99.90;;;;;;5046652;28;20553;-73
2023/07/27 08:17:07;;;;;;;19.53;12.33;;;17.50;99.90;;;;;;5039178;28;20995;-73
2023/07/27 08:19:34;;;;;;;19.70;11.37;;;17.70;99.90;;;;;;5042902;28;20445;-73
2023/07/27 08:22:02;;;;;;;13.63;10.60;;;17.80;99.90;;;;;;5039511;28;20443;-72
2023/07/27 08:24:29;;;;;;;12.80;10.20;;;17.80;99.90;;;;;;5043899;28;20462;-72
2023/07/27 08:26:56;;;;;;;11.73;10.40;;;18.00;99.90;;;;;;5035649;28;20535;-73
2023/07/27 08:29:23;;;;;;;11.83;9.60;;;18.10;99.90;;;;;;5034299;28;20482;-72
2023/07/27 08:31:50;;;;;;;11.80;10.63;;;18.20;99.90;;;;;;5037711;28;20533;-73
2023/07/27 08:34:18;;;;;;;13.50;10.23;;;18.30;99.90;;;;;;5043906;28;20480;-73
2023/07/27 08:36:47;;;;;;;13.17;10.80;;;18.40;99.90;;;;;;5037832;28;20633;-72
2023/07/27 08:39:14;;;;;;;11.73;10.47;;;18.40;99.90;;;;;;5026144;28;20444;-73
2023/07/27 08:41:41;;;;;;;12.57;11.23;;;18.50;99.90;;;;;;5039726;28;20480;-72
2023/07/27 08:44:09;;;;;;;14.53;9.90;;;18.80;99.90;;;;;;5039651;28;20773;-73
2023/07/27 08:46:37;;;;;;;13.80;8.50;;;18.70;99.90;;;;;;5044640;28;20538;-73
2023/07/27 08:49:05;;;;;;;9.70;8.70;;;18.70;99.90;;;;;;5045684;28;20545;-72
2023/07/27 08:51:35;;;;;;;10.50;8.60;;;18.60;99.90;;;;;;5034947;28;20946;-72
2023/07/27 08:54:02;;;;;;;13.80;8.20;;;18.40;99.90;;;;;;5046426;28;20462;-72
2023/07/27 08:56:29;;;;;;;10.70;9.10;;;18.20;99.90;;;;;;5034221;28;20462;-73
2023/07/27 08:58:56;;;;;;;14.53;8.53;;;18.20;99.90;;;;;;5039056;28;20512;-73
2023/07/27 09:01:23;;;;;;;11.97;9.43;;;18.10;99.90;;;;;;5035148;28;20454;-73
2023/07/27 09:03:50;;;;;;;10.40;9.10;;;18.00;99.90;;;;;;5042103;28;20464;-72
2023/07/27 09:06:17;;;;;;;17.90;9.20;;;17.90;99.90;;;;;;5033446;28;20456;-73
2023/07/27 09:08:47;;;;;;;13.90;7.60;;;18.00;99.90;;;;;;5043689;28;20476;-72
2023/07/27 09:11:20;;;;;;;11.20;10.03;;;18.00;99.90;;;;;;5032362;28;20502;-73
2023/07/27 09:13:46;;;;;;;12.17;8.30;;;18.00;99.90;;;;;;5038210;28;20558;-74
2023/07/27 09:16:14;;;;;;;11.90;8.50;;;18.00;99.90;;;;;;5045873;28;20527;-73
2023/07/27 09:18:41;;;;;;;8.73;7.70;;;18.00;99.90;;;;;;5036358;28;20447;-73
2023/07/27 09:21:09;;;;;;;8.27;6.60;;;18.10;99.90;;;;;;5044483;28;20460;-73
2023/07/27 09:23:37;;;;;;;10.20;7.60;;;18.20;99.90;;;;;;5034793;28;21054;-73
2023/07/27 09:26:06;;;;;;;9.90;8.00;;;18.30;99.90;;;;;;5039107;28;20439;-72
2023/07/27 09:28:34;;;;;;;10.10;7.77;;;18.40;99.90;;;;;;5029900;28;20908;-73
2023/07/27 09:31:02;;;;;;;13.47;7.27;;;18.50;99.90;;;;;;5037660;28;20574;-73
2023/07/27 09:33:29;;;;;;;11.07;8.60;;;18.60;99.90;;;;;;5040096;28;20463;-73
2023/07/27 09:35:56;;;;;;;13.73;8.00;;;18.40;99.90;;;;;;5042336;28;20526;-73
2023/07/27 09:38:27;;;;;;;11.93;7.80;;;18.40;99.90;;;;;;5041204;28;20493;-73
2023/07/27 09:40:54;;;;;;;10.80;7.00;;;18.40;99.90;;;;;;5033028;28;20563;-73
2023/07/27 09:43:24;;;;;;;9.13;8.10;;;18.40;99.90;;;;;;5035379;28;20490;-73
2023/07/27 09:45:58;;;;;;;7.67;6.87;;;18.40;99.90;;;;;;5036727;28;20459;-72
2023/07/27 09:48:25;;;;;;;10.10;9.00;;;18.30;99.90;;;;;;5044343;28;20463;-72
2023/07/27 09:50:54;;;;;;;10.20;7.57;;;18.40;99.90;;;;;;5037440;28;20490;-73
2023/07/27 09:53:22;;;;;;;10.33;7.77;;;18.40;99.90;;;;;;5044119;28;20893;-72
2023/07/27 09:55:50;;;;;;;8.10;7.20;;;18.40;99.90;;;;;;5043144;28;20449;-71
2023/07/27 09:58:18;;;;;;;8.67;6.77;;;18.50;99.90;;;;;;5045975;28;20438;-72
2023/07/27 10:00:47;;;;;;;8.60;7.13;;;18.50;99.90;;;;;;5042533;28;20453;-73
2023/07/27 10:03:15;;;;;;;9.03;7.80;;;18.60;99.90;;;;;;5032142;28;21048;-73
2023/07/27 10:05:43;;;;;;;11.27;7.20;;;18.70;99.90;;;;;;5045466;28;20450;-73
2023/07/27 10:08:11;;;;;;;8.30;6.40;;;18.80;99.90;;;;;;5047785;28;20560;-73
2023/07/27 10:10:39;;;;;;;9.93;6.03;;;18.80;99.90;;;;;;5043025;28;20505;-74
2023/07/27 10:13:11;;;;;;;7.17;5.97;;;18.80;99.90;;;;;;5043644;28;20480;-75
2023/07/27 10:15:42;;;;;;;7.90;5.90;;;18.70;99.90;;;;;;5048616;28;20454;-72
2023/07/27 10:18:14;;;;;;;13.20;7.40;;;18.60;99.90;;;;;;5040249;28;20542;-74
2023/07/27 10:20:42;;;;;;;7.90;6.73;;;18.50;99.90;;;;;;5038287;28;20440;-74
2023/07/27 10:23:17;;;;;;;9.27;6.77;;;18.40;99.90;;;;;;5032263;28;20489;-73
2023/07/27 10:26:06;;;;;;;9.00;6.80;;;18.40;99.90;;;;;;5033110;28;20488;-72
2023/07/27 10:28:37;;;;;;;6.90;6.20;;;18.20;99.90;;;;;;5033299;28;20459;-72
2023/07/27 10:31:23;;;;;;;7.83;6.00;;;18.20;99.90;;;;;;5023267;28;20892;-74
2023/07/27 10:33:56;;;;;;;7.33;6.63;;;18.20;99.90;;;;;;5029925;28;20487;-74
2023/07/27 10:36:24;;;;;;;8.20;6.47;;;18.10;99.90;;;;;;5032271;28;20533;-72
2023/07/27 10:38:53;;;;;;;9.00;5.93;;;18.00;99.90;;;;;;5031534;28;20453;-73
2023/07/27 10:41:22;;;;;;;6.83;6.13;;;17.90;99.90;;;;;;5041195;28;20917;-74
2023/07/27 10:44:18;;;;;;;7.67;5.73;;;17.80;99.90;;;;;;5038922;28;20824;-72
2023/07/27 10:46:48;;;;;;;7.20;4.70;;;17.80;99.90;;;;;;5040762;28;20478;-72
2023/07/27 10:49:17;;;;;;;6.27;5.67;;;17.70;99.90;;;;;;5035428;28;20465;-72
2023/07/27 10:51:46;;;;;;;6.03;4.63;;;17.60;99.90;;;;;;5030359;28;20475;-73
2023/07/27 10:54:14;;;;;;;7.93;6.33;;;17.40;99.90;;;;;;5027015;28;20469;-73
2023/07/27 10:56:44;;;;;;;5.90;5.40;;;17.40;99.90;;;;;;5034446;28;20476;-73
2023/07/27 10:59:13;;;;;;;10.67;5.90;;;17.40;99.90;;;;;;5032926;28;20451;-72
2023/07/27 11:01:47;;;;;;;7.17;6.50;;;17.40;99.90;;;;;;5027815;28;20930;-72
2023/07/27 11:04:16;;;;;;;7.93;6.60;;;17.30;99.90;;;;;;5025401;28;20833;-72
2023/07/27 11:06:45;;;;;;;7.90;5.67;;;17.30;99.90;;;;;;5032003;28;20454;-72
2023/07/27 11:09:16;;;;;;;7.63;5.17;;;17.50;99.90;;;;;;5023439;28;20878;-72
2023/07/27 11:11:44;;;;;;;6.90;5.40;;;17.40;99.90;;;;;;5033332;28;20852;-73
2023/07/27 11:14:11;;;;;;;9.73;6.27;;;17.40;99.90;;;;;;5035826;28;20233;-72
2023/07/27 11:16:49;;;;;;;8.50;5.60;;;17.50;99.90;;;;;;5034134;28;20504;-73
2023/07/27 11:19:17;;;;;;;7.40;6.30;;;17.70;99.90;;;;;;5032928;28;20429;-73
2023/07/27 11:21:44;;;;;;;6.83;6.23;;;17.70;99.90;;;;;;5041035;28;20444;-73
2023/07/27 11:24:11;;;;;;;5.70;5.00;;;17.80;99.90;;;;;;5034283;28;20462;-73
2023/07/27 11:26:38;;;;;;;6.07;5.30;;;17.90;99.90;;;;;;5041994;28;20474;-73
2023/07/27 11:29:06;;;;;;;6.03;5.30;;;17.90;99.90;;;;;;5038289;28;20526;-72
2023/07/27 11:31:34;;;;;;;6.73;6.13;;;17.90;99.90;;;;;;5030440;28;20490;-72
2023/07/27 11:34:02;;;;;;;6.00;5.17;;;17.90;99.90;;;;;;5039443;28;20467;-72
2023/07/27 11:36:31;;;;;;;5.13;4.63;;;17.90;99.90;;;;;;5040935;28;20501;-73
2023/07/27 11:38:59;;;;;;;4.93;4.43;;;17.80;99.90;;;;;;5032242;28;20794;-73
2023/07/27 11:41:28;;;;;;;5.30;4.80;;;17.90;99.90;;;;;;5041986;28;20441;-73
2023/07/27 11:43:56;;;;;;;5.13;4.33;;;17.90;99.90;;;;;;5043592;28;20473;-73
2023/07/27 11:46:24;;;;;;;5.07;4.50;;;17.90;99.90;;;;;;5025702;28;20814;-72
2023/07/27 11:48:51;;;;;;;5.20;4.70;;;17.70;99.90;;;;;;5042266;28;20450;-72
2023/07/27 11:51:18;;;;;;;3.87;3.57;;;17.60;99.90;;;;;;5039276;28;20577;-72
2023/07/27 11:53:47;;;;;;;4.50;4.10;;;17.60;99.90;;;;;;5042960;28;20476;-73
2023/07/27 11:56:14;;;;;;;3.97;3.43;;;17.60;99.90;;;;;;5031137;28;20861;-73
2023/07/27 11:58:43;;;;;;;5.57;4.97;;;17.60;99.90;;;;;;5033927;28;20449;-72
2023/07/27 12:01:11;;;;;;;4.37;3.97;;;17.70;99.90;;;;;;5047280;28;20810;-72
2023/07/27 12:03:41;;;;;;;5.80;3.53;;;17.50;99.90;;;;;;5047188;28;20470;-72
2023/07/27 12:06:08;;;;;;;4.10;3.80;;;17.70;99.90;;;;;;5049539;28;20438;-74
2023/07/27 12:08:39;;;;;;;5.17;4.67;;;17.90;99.90;;;;;;5047619;28;20441;-72
2023/07/27 12:11:09;;;;;;;9.07;4.03;;;18.10;99.90;;;;;;5041637;28;20540;-74
2023/07/27 12:13:37;;;;;;;4.03;3.63;;;18.30;99.90;;;;;;5041712;28;21065;-73
2023/07/27 12:16:06;;;;;;;4.53;4.13;;;18.60;99.90;;;;;;5046805;28;20457;-72
2023/07/27 12:18:34;;;;;;;4.63;4.23;;;18.70;99.90;;;;;;5028203;28;20844;-73
2023/07/27 12:21:00;;;;;;;4.30;3.90;;;18.80;99.90;;;;;;5044467;28;20442;-73
2023/07/27 12:23:28;;;;;;;5.40;3.60;;;18.80;99.90;;;;;;5037670;28;20467;-72
2023/07/27 12:25:56;;;;;;;4.43;3.97;;;18.80;99.90;;;;;;5041851;28;20521;-71
2023/07/27 12:28:24;;;;;;;4.53;4.00;;;19.00;99.90;;;;;;5029363;28;20447;-74
2023/07/27 12:30:51;;;;;;;8.80;4.10;;;18.90;99.90;;;;;;5037414;28;20841;-71
2023/07/27 12:33:21;;;;;;;4.50;3.77;;;18.90;99.90;;;;;;5027478;28;21035;-74
2023/07/27 12:35:50;;;;;;;6.07;5.10;;;18.90;99.90;;;;;;5047222;28;20453;-74
2023/07/27 12:38:17;;;;;;;4.83;4.43;;;18.90;99.90;;;;;;5044241;28;20454;-73
2023/07/27 12:40:44;;;;;;;4.60;3.90;;;19.00;99.90;;;;;;5044847;28;20912;-73